Yellow Spring, West Virginia
Current Conditions -  °F | °C
As of 9:35 AM on Friday 28 Nov 2014 (Local Time) from KOKV Reporting Station
Broken Clouds Broken Clouds  
Wind Chill: 26°   Ceiling: 4500
Heat Index: 32°   Visibility: 10mi
Dew Point: 19°   Wind: 6mph
Humidity: 60%   Direction: 300°WNW
Pressure: 30.3"   Gusts: 13mph
Location:  39.18°N, 78.51°W
Report Text: KOKV 281435Z AUTO 30005G11KT 10SM SCT027 SCT034 BKN045 00/M07 A3030 RMK AO2
Loading
Personal Weather Stations






























Interactive Weather Map New forecast layout! Learn more

10-Day Weather Forecast

Advertisements
Track Severe Weather on mobile